Time;durP1;ratioP1;P1;durP2;ratioP2;P2;SDS_P1;SDS_P2;PMS_P1;PMS_P2;Temp;Humidity;BMP_temperature;BMP_pressure;BME280_temperature;BME280_humidity;BME280_pressure;Samples;Min_cycle;Max_cycle;Signal;HPM_P1;HPM_P2
2023/03/04 00:01:07;;;;;;;36.20;22.75;;;5.00;99.90;;;;;;5112011;28;20457;-55
2023/03/04 00:03:33;;;;;;;43.20;23.10;;;5.20;99.90;;;;;;5112158;28;20199;-56
2023/03/04 00:06:00;;;;;;;36.83;23.52;;;5.30;99.90;;;;;;5112270;28;20440;-55
2023/03/04 00:08:26;;;;;;;40.70;24.77;;;5.00;99.90;;;;;;5111738;28;20199;-55
2023/03/04 00:10:53;;;;;;;40.50;24.50;;;4.70;99.90;;;;;;5112487;28;20198;-56
2023/03/04 00:13:21;;;;;;;39.25;23.25;;;5.00;99.90;;;;;;5111913;28;20535;-56
2023/03/04 00:15:48;;;;;;;41.20;23.50;;;4.20;99.90;;;;;;5112449;28;20189;-54
2023/03/04 00:18:15;;;;;;;42.00;22.70;;;4.90;99.90;;;;;;5092856;28;20551;-55
2023/03/04 00:20:42;;;;;;;38.38;22.23;;;4.90;99.90;;;;;;5093478;28;20214;-56
2023/03/04 00:23:08;;;;;;;37.00;23.35;;;5.20;99.90;;;;;;5112136;28;20588;-53
2023/03/04 00:25:35;;;;;;;38.20;21.73;;;4.70;99.90;;;;;;5112167;28;20202;-54
2023/03/04 00:28:02;;;;;;;36.75;21.33;;;5.10;99.90;;;;;;5111767;28;20222;-56
2023/03/04 00:30:30;;;;;;;36.13;21.33;;;4.90;99.90;;;;;;5093291;28;20605;-54
2023/03/04 00:32:56;;;;;;;42.00;22.90;;;5.00;99.90;;;;;;5093597;28;20419;-54
2023/03/04 00:35:23;;;;;;;35.33;22.07;;;5.00;99.90;;;;;;5093426;28;20957;-55
2023/03/04 00:37:50;;;;;;;32.93;20.73;;;5.40;99.90;;;;;;5111501;28;20460;-56
2023/03/04 00:40:17;;;;;;;38.47;22.50;;;5.50;99.90;;;;;;5111275;28;20433;-54
2023/03/04 00:42:44;;;;;;;34.60;20.03;;;5.10;99.90;;;;;;5111479;28;20439;-54
2023/03/04 00:45:11;;;;;;;32.93;20.37;;;5.30;99.90;;;;;;5111706;28;20391;-54
2023/03/04 00:47:39;;;;;;;38.87;21.90;;;5.30;99.90;;;;;;5111167;28;20448;-56
2023/03/04 00:50:07;;;;;;;37.88;21.40;;;5.30;99.90;;;;;;5111253;28;20409;-54
2023/03/04 00:52:33;;;;;;;35.00;20.53;;;5.40;99.90;;;;;;5093276;28;20205;-53
2023/03/04 00:55:00;;;;;;;32.87;20.17;;;5.20;99.90;;;;;;5111686;28;20408;-55
2023/03/04 00:57:27;;;;;;;31.90;18.33;;;5.00;99.90;;;;;;5112591;28;20415;-55
2023/03/04 00:59:53;;;;;;;33.87;19.97;;;5.20;99.90;;;;;;5115280;28;20429;-54
2023/03/04 01:02:20;;;;;;;36.20;19.83;;;5.30;99.90;;;;;;5114930;28;20520;-54
2023/03/04 01:04:48;;;;;;;42.17;21.00;;;5.30;99.90;;;;;;5115124;28;20880;-54
2023/03/04 01:07:15;;;;;;;34.17;17.83;;;5.30;99.90;;;;;;5096830;28;20555;-54
2023/03/04 01:09:42;;;;;;;34.33;18.63;;;5.50;99.90;;;;;;5114695;28;20440;-52
2023/03/04 01:12:08;;;;;;;33.50;17.27;;;4.80;99.90;;;;;;5096784;28;20440;-53
2023/03/04 01:14:35;;;;;;;30.70;16.90;;;5.60;99.90;;;;;;5096656;28;20418;-56
2023/03/04 01:17:01;;;;;;;33.57;16.97;;;5.00;99.90;;;;;;5096140;28;20483;-55
2023/03/04 01:19:28;;;;;;;26.87;14.70;;;5.10;99.90;;;;;;5114473;28;20424;-54
2023/03/04 01:21:56;;;;;;;30.33;16.13;;;5.10;99.90;;;;;;5114934;28;20802;-55
2023/03/04 01:24:23;;;;;;;30.27;14.63;;;5.30;99.90;;;;;;5096339;28;20414;-55
2023/03/04 01:26:49;;;;;;;25.85;14.75;;;5.50;99.90;;;;;;5114762;28;20433;-55
2023/03/04 01:29:16;;;;;;;22.57;13.00;;;5.50;99.90;;;;;;5096109;28;20682;-53
2023/03/04 01:31:43;;;;;;;55.33;14.50;;;5.40;99.90;;;;;;5114342;28;20464;-54
2023/03/04 01:34:09;;;;;;;32.83;14.40;;;5.30;99.90;;;;;;5114629;28;20909;-54
2023/03/04 01:36:36;;;;;;;26.33;12.90;;;5.00;99.90;;;;;;5096061;28;20605;-55
2023/03/04 01:39:04;;;;;;;24.52;12.90;;;5.10;99.90;;;;;;5114635;28;20761;-54
2023/03/04 01:41:31;;;;;;;38.75;13.32;;;5.20;99.90;;;;;;5114356;28;20224;-55
2023/03/04 01:44:01;;;;;;;24.30;11.83;;;5.20;99.90;;;;;;5114341;28;20196;-54
2023/03/04 01:46:28;;;;;;;28.50;12.75;;;5.10;99.90;;;;;;5095797;28;20446;-55
2023/03/04 01:48:55;;;;;;;22.93;12.40;;;5.10;99.90;;;;;;5113798;28;20203;-53
2023/03/04 01:51:22;;;;;;;16.07;11.10;;;5.20;99.90;;;;;;5095718;28;20421;-55
2023/03/04 01:53:52;;;;;;;19.53;10.80;;;5.10;99.90;;;;;;5095767;28;20441;-54
2023/03/04 01:56:24;;;;;;;22.35;10.75;;;5.20;99.90;;;;;;5114347;28;20933;-55
2023/03/04 01:59:09;;;;;;;22.27;10.32;;;5.40;99.90;;;;;;5095283;28;20198;-56
2023/03/04 02:01:36;;;;;;;23.23;11.03;;;4.90;99.90;;;;;;5113744;28;20291;-54
2023/03/04 02:04:06;;;;;;;28.63;11.55;;;5.20;99.90;;;;;;5113952;28;21063;-55
2023/03/04 02:06:34;;;;;;;20.17;10.25;;;5.40;99.90;;;;;;5113931;28;20206;-54
2023/03/04 02:09:01;;;;;;;18.00;9.70;;;5.40;99.90;;;;;;5113175;28;20194;-54
2023/03/04 02:11:29;;;;;;;28.67;11.52;;;4.80;99.90;;;;;;5095583;28;20574;-53
2023/03/04 02:13:55;;;;;;;26.57;9.57;;;5.40;99.90;;;;;;5095469;28;20555;-55
2023/03/04 02:16:22;;;;;;;19.10;10.10;;;5.00;99.90;;;;;;5094960;28;20462;-54
2023/03/04 02:18:49;;;;;;;27.87;10.93;;;5.60;99.90;;;;;;5113399;28;20432;-54
2023/03/04 02:21:23;;;;;;;19.80;9.27;;;5.50;99.90;;;;;;5113577;28;20941;-54
2023/03/04 02:23:58;;;;;;;18.83;9.30;;;5.40;99.90;;;;;;5114050;28;20426;-54
2023/03/04 02:26:27;;;;;;;24.30;9.83;;;5.50;99.90;;;;;;5112329;28;20234;-54
2023/03/04 02:28:57;;;;;;;19.30;9.17;;;5.60;99.90;;;;;;5094860;28;20430;-54
2023/03/04 02:31:26;;;;;;;17.57;8.53;;;5.30;99.90;;;;;;5094903;28;20849;-54
2023/03/04 02:33:54;;;;;;;20.23;9.93;;;5.70;99.90;;;;;;5095257;28;20459;-55
2023/03/04 02:36:22;;;;;;;17.60;8.37;;;5.60;99.90;;;;;;5111963;28;20439;-54
2023/03/04 02:38:51;;;;;;;23.60;9.57;;;5.60;99.90;;;;;;5111668;28;20452;-54
2023/03/04 02:41:21;;;;;;;25.53;8.93;;;5.50;99.90;;;;;;5111840;28;20454;-55
2023/03/04 02:43:51;;;;;;;16.97;8.00;;;5.80;99.90;;;;;;5113192;28;20399;-54
2023/03/04 02:46:18;;;;;;;17.57;8.67;;;5.60;99.90;;;;;;5111723;28;20462;-53
2023/03/04 02:48:45;;;;;;;26.90;9.80;;;5.50;99.90;;;;;;5112826;28;20411;-55
2023/03/04 02:51:12;;;;;;;28.43;9.93;;;5.60;99.90;;;;;;5113094;28;20717;-54
2023/03/04 02:53:38;;;;;;;13.40;7.80;;;5.50;99.90;;;;;;5112909;28;20432;-55
2023/03/04 02:56:06;;;;;;;22.47;8.37;;;5.70;99.90;;;;;;5112851;28;20519;-54
2023/03/04 02:58:37;;;;;;;29.43;9.60;;;5.80;99.90;;;;;;5111421;28;20427;-54
2023/03/04 03:01:05;;;;;;;22.83;8.13;;;5.10;99.90;;;;;;5094854;28;20791;-54
2023/03/04 03:03:32;;;;;;;23.40;8.07;;;5.60;99.90;;;;;;5094502;28;20507;-53
2023/03/04 03:05:59;;;;;;;24.97;9.40;;;6.00;99.90;;;;;;5112804;28;20414;-56
2023/03/04 03:08:26;;;;;;;20.70;7.73;;;5.70;99.90;;;;;;5094199;28;20618;-54
2023/03/04 03:10:54;;;;;;;18.97;6.90;;;5.70;99.90;;;;;;5094465;28;20451;-54
2023/03/04 03:13:22;;;;;;;20.53;8.60;;;5.90;99.90;;;;;;5094532;28;20442;-53
2023/03/04 03:15:49;;;;;;;14.23;7.00;;;5.90;99.90;;;;;;5112420;28;20425;-53
2023/03/04 03:18:17;;;;;;;18.83;7.35;;;5.80;99.90;;;;;;5093788;28;20530;-53
2023/03/04 03:20:44;;;;;;;22.80;7.97;;;6.00;99.90;;;;;;5111759;28;20567;-54
2023/03/04 03:23:10;;;;;;;22.53;7.67;;;5.70;99.90;;;;;;5110807;28;20479;-54
2023/03/04 03:25:37;;;;;;;15.00;7.17;;;5.80;99.90;;;;;;5094064;28;20437;-54
2023/03/04 03:28:05;;;;;;;21.27;7.67;;;5.80;99.90;;;;;;5093767;28;20502;-54
2023/03/04 03:30:32;;;;;;;19.80;8.37;;;5.70;99.90;;;;;;5093526;28;20432;-56
2023/03/04 03:32:59;;;;;;;17.83;7.63;;;5.80;99.90;;;;;;5094158;28;20421;-56
2023/03/04 03:35:27;;;;;;;23.13;8.10;;;6.00;99.90;;;;;;5093893;28;20415;-54
2023/03/04 03:37:53;;;;;;;18.20;7.50;;;5.90;99.90;;;;;;5112237;28;20422;-55
2023/03/04 03:40:20;;;;;;;20.50;7.80;;;5.80;99.90;;;;;;5112083;28;20407;-54
2023/03/04 03:42:47;;;;;;;19.60;7.63;;;6.10;99.90;;;;;;5112237;28;20808;-53
2023/03/04 03:45:13;;;;;;;13.90;7.33;;;5.90;99.90;;;;;;5112254;28;20435;-53
2023/03/04 03:47:40;;;;;;;22.53;6.87;;;6.10;99.90;;;;;;5112040;28;20439;-54
2023/03/04 03:50:07;;;;;;;23.77;6.63;;;5.90;99.90;;;;;;5093391;28;20987;-54
2023/03/04 03:52:36;;;;;;;15.90;7.37;;;6.20;99.90;;;;;;5112277;28;20403;-55
2023/03/04 03:55:02;;;;;;;22.43;8.10;;;6.20;99.90;;;;;;5112152;28;20428;-54
2023/03/04 03:57:29;;;;;;;22.83;7.50;;;5.90;99.90;;;;;;5112097;28;20461;-53
2023/03/04 03:59:56;;;;;;;17.10;7.60;;;6.00;99.90;;;;;;5111481;28;20449;-54
2023/03/04 04:02:23;;;;;;;13.23;7.13;;;5.80;99.90;;;;;;5111879;28;20484;-57
2023/03/04 04:04:50;;;;;;;20.57;6.30;;;6.00;99.90;;;;;;5093558;28;20415;-55
2023/03/04 04:07:17;;;;;;;25.03;6.90;;;6.00;99.90;;;;;;5111912;28;20492;-54
2023/03/04 04:09:45;;;;;;;15.30;6.60;;;6.10;99.90;;;;;;5111778;28;20412;-54
2023/03/04 04:12:13;;;;;;;21.30;6.77;;;5.60;99.90;;;;;;5112020;28;20862;-54
2023/03/04 04:14:40;;;;;;;25.33;7.43;;;5.90;99.90;;;;;;5111745;28;20493;-54
2023/03/04 04:17:07;;;;;;;23.70;7.60;;;6.40;99.90;;;;;;5111524;28;20890;-54
2023/03/04 04:19:34;;;;;;;16.03;6.33;;;6.40;99.90;;;;;;5111275;28;20918;-54
2023/03/04 04:22:00;;;;;;;13.17;6.03;;;6.20;99.90;;;;;;5093259;28;20454;-55
2023/03/04 04:24:27;;;;;;;31.30;6.63;;;6.10;99.90;;;;;;5111976;28;20404;-54
2023/03/04 04:26:56;;;;;;;8.87;5.53;;;6.20;99.90;;;;;;5111605;28;20456;-55
2023/03/04 04:29:22;;;;;;;17.30;6.07;;;5.50;99.90;;;;;;5093047;28;20454;-54
2023/03/04 04:31:49;;;;;;;15.10;5.60;;;6.30;99.90;;;;;;5113153;28;20423;-55
2023/03/04 04:34:16;;;;;;;15.17;6.30;;;6.20;99.90;;;;;;5115993;28;20436;-55
2023/03/04 04:36:43;;;;;;;20.27;5.53;;;6.40;99.90;;;;;;5115745;28;20901;-55
2023/03/04 04:39:09;;;;;;;13.87;5.80;;;6.30;99.90;;;;;;5115616;28;20440;-55
2023/03/04 04:41:38;;;;;;;15.23;5.30;;;5.70;99.90;;;;;;5115743;28;20412;-56
2023/03/04 04:44:07;;;;;;;18.27;5.40;;;6.30;99.90;;;;;;5115507;28;20482;-54
2023/03/04 04:46:33;;;;;;;16.30;5.90;;;6.40;99.90;;;;;;5115466;28;20431;-53
2023/03/04 04:49:00;;;;;;;16.83;5.30;;;6.00;99.90;;;;;;5115221;28;20520;-54
2023/03/04 04:51:28;;;;;;;17.07;5.83;;;6.40;99.90;;;;;;5115680;28;20448;-54
2023/03/04 04:53:55;;;;;;;12.67;5.77;;;6.10;99.90;;;;;;5115481;28;20928;-56
2023/03/04 04:56:25;;;;;;;11.40;5.30;;;5.80;99.90;;;;;;5115313;28;20453;-55
2023/03/04 04:58:52;;;;;;;21.60;5.57;;;6.40;99.90;;;;;;5114995;28;20419;-56
2023/03/04 05:01:20;;;;;;;23.53;5.13;;;6.10;99.90;;;;;;5115545;28;20664;-54
2023/03/04 05:03:48;;;;;;;9.40;4.27;;;6.30;99.90;;;;;;5114989;28;20478;-54
2023/03/04 05:06:15;;;;;;;14.23;4.80;;;6.50;99.90;;;;;;5115207;28;20461;-55
2023/03/04 05:08:42;;;;;;;13.27;5.57;;;6.60;99.90;;;;;;5114657;28;20438;-54
2023/03/04 05:11:09;;;;;;;11.83;4.43;;;5.80;99.90;;;;;;5115119;28;20419;-54
2023/03/04 05:13:35;;;;;;;10.60;4.10;;;6.30;99.90;;;;;;5114890;28;20445;-54
2023/03/04 05:16:03;;;;;;;14.50;4.10;;;6.50;99.90;;;;;;5114730;28;20942;-55
2023/03/04 05:18:31;;;;;;;11.23;4.40;;;6.20;99.90;;;;;;5129132;22;20480;-49
2023/03/04 05:21:00;;;;;;;12.60;4.70;;;6.30;99.90;;;;;;5116404;28;20403;-48
2023/03/04 05:23:29;;;;;;;12.03;4.33;;;6.40;99.90;;;;;;5116408;28;20952;-48
2023/03/04 05:25:55;;;;;;;18.70;4.87;;;6.30;99.90;;;;;;5115655;28;20437;-49
2023/03/04 05:28:22;;;;;;;11.03;4.40;;;6.40;99.90;;;;;;5115308;28;20796;-49
2023/03/04 05:30:49;;;;;;;13.93;3.67;;;6.50;99.90;;;;;;5115863;28;20891;-49
2023/03/04 05:33:17;;;;;;;9.10;4.20;;;6.60;99.90;;;;;;5115690;28;20414;-50
2023/03/04 05:35:47;;;;;;;19.80;4.53;;;6.50;99.90;;;;;;5115473;28;20404;-49
2023/03/04 05:38:15;;;;;;;13.50;4.70;;;6.70;99.90;;;;;;5114777;28;20500;-49
2023/03/04 05:40:43;;;;;;;13.20;3.93;;;6.30;99.90;;;;;;5115455;28;20433;-49
2023/03/04 05:43:10;;;;;;;8.20;3.93;;;6.60;99.90;;;;;;5114374;28;20543;-48
2023/03/04 05:45:37;;;;;;;8.10;3.60;;;5.90;99.90;;;;;;5115040;28;20416;-47
2023/03/04 05:48:04;;;;;;;13.10;4.87;;;6.40;99.90;;;;;;5114736;28;20953;-49
2023/03/04 05:50:31;;;;;;;13.90;4.70;;;6.60;99.90;;;;;;5114848;28;20430;-48
2023/03/04 05:52:59;;;;;;;7.87;3.30;;;6.40;99.90;;;;;;5114774;28;20413;-49
2023/03/04 05:55:28;;;;;;;16.50;4.80;;;6.40;99.90;;;;;;5114710;28;21034;-50
2023/03/04 05:57:55;;;;;;;11.03;4.40;;;6.60;99.90;;;;;;5114476;28;20423;-49
2023/03/04 06:00:22;;;;;;;16.50;4.50;;;6.60;99.90;;;;;;5114501;28;20409;-49
2023/03/04 06:02:49;;;;;;;12.37;4.37;;;6.50;99.90;;;;;;5114603;28;20469;-49
2023/03/04 06:05:16;;;;;;;13.93;4.03;;;6.00;99.90;;;;;;5114431;28;20423;-49
2023/03/04 06:07:44;;;;;;;11.93;4.43;;;6.50;99.90;;;;;;5114378;28;20428;-50
2023/03/04 06:10:16;;;;;;;24.33;4.33;;;6.90;99.90;;;;;;5114032;28;20521;-49
2023/03/04 06:12:43;;;;;;;16.53;4.57;;;6.60;99.90;;;;;;5114396;28;20426;-49
2023/03/04 06:15:10;;;;;;;15.23;4.90;;;6.60;99.90;;;;;;5114271;28;20426;-49
2023/03/04 06:17:37;;;;;;;9.50;3.80;;;6.70;99.90;;;;;;5114005;28;20444;-49
2023/03/04 06:20:06;;;;;;;6.83;4.47;;;6.50;99.90;;;;;;5113957;28;20457;-49
2023/03/04 06:22:32;;;;;;;13.03;3.93;;;6.80;99.90;;;;;;5114354;28;20862;-50
2023/03/04 06:24:59;;;;;;;11.60;5.70;;;6.70;99.90;;;;;;5114034;28;20430;-49
2023/03/04 06:27:27;;;;;;;12.03;3.87;;;6.80;99.90;;;;;;5113977;28;20432;-49
2023/03/04 06:29:54;;;;;;;9.90;3.53;;;6.50;99.90;;;;;;5113752;28;20937;-50
2023/03/04 06:32:20;;;;;;;13.77;3.80;;;6.70;99.90;;;;;;5113911;28;20440;-50
2023/03/04 06:34:47;;;;;;;12.43;4.17;;;6.70;99.90;;;;;;5113753;28;20430;-50
2023/03/04 06:37:14;;;;;;;10.10;3.63;;;6.80;99.90;;;;;;5113684;28;20449;-49
2023/03/04 06:39:40;;;;;;;14.57;4.10;;;6.50;99.90;;;;;;5113427;28;20405;-51
2023/03/04 06:42:07;;;;;;;19.50;5.63;;;6.50;99.90;;;;;;5113695;28;20434;-50
2023/03/04 06:44:35;;;;;;;11.10;4.10;;;6.80;99.90;;;;;;5113521;28;20484;-48
2023/03/04 06:47:02;;;;;;;10.43;4.23;;;7.00;99.90;;;;;;5113619;28;20428;-48
2023/03/04 06:49:28;;;;;;;14.13;4.47;;;7.00;99.90;;;;;;5113276;28;20424;-49
2023/03/04 06:51:55;;;;;;;9.73;4.00;;;6.90;99.90;;;;;;5113530;28;20401;-49
2023/03/04 06:54:21;;;;;;;11.00;3.73;;;6.80;99.90;;;;;;5113536;28;20465;-49
2023/03/04 06:56:48;;;;;;;9.20;3.77;;;6.60;99.90;;;;;;5113355;28;20450;-50
2023/03/04 06:59:16;;;;;;;7.77;4.17;;;7.10;99.90;;;;;;5113047;28;20409;-50
2023/03/04 07:01:44;;;;;;;9.73;4.83;;;6.90;99.90;;;;;;5113293;28;20430;-51
2023/03/04 07:04:13;;;;;;;13.17;5.23;;;6.90;99.90;;;;;;5113016;28;20471;-49
2023/03/04 07:06:39;;;;;;;13.80;5.00;;;6.90;99.90;;;;;;5113203;28;20446;-47
2023/03/04 07:09:06;;;;;;;12.63;5.00;;;6.90;99.90;;;;;;5112803;28;20417;-50
2023/03/04 07:11:33;;;;;;;12.97;5.30;;;6.50;99.90;;;;;;5113188;28;20495;-49
2023/03/04 07:14:00;;;;;;;11.70;4.67;;;7.10;99.90;;;;;;5113101;28;20441;-49
2023/03/04 07:16:26;;;;;;;11.90;4.00;;;7.30;99.90;;;;;;5112865;28;20413;-48
2023/03/04 07:18:54;;;;;;;11.80;4.00;;;6.60;99.90;;;;;;5112754;28;20797;-50
2023/03/04 07:21:21;;;;;;;12.20;3.90;;;7.30;99.90;;;;;;5112883;28;20449;-49
2023/03/04 07:23:48;;;;;;;12.37;3.60;;;7.00;99.90;;;;;;5112836;28;20502;-49
2023/03/04 07:26:15;;;;;;;10.47;4.07;;;7.30;99.90;;;;;;5112957;28;20431;-49
2023/03/04 07:28:42;;;;;;;7.40;2.80;;;7.10;99.90;;;;;;5112535;28;20887;-49
2023/03/04 07:31:13;;;;;;;14.87;3.90;;;7.20;99.90;;;;;;5112735;28;20449;-49
2023/03/04 07:33:41;;;;;;;8.10;3.23;;;7.30;99.90;;;;;;5112897;28;20433;-50
2023/03/04 07:36:10;;;;;;;10.07;3.80;;;7.10;99.90;;;;;;5112734;28;20404;-49
2023/03/04 07:38:36;;;;;;;7.73;3.67;;;7.10;99.90;;;;;;5112181;28;20476;-49
2023/03/04 07:41:03;;;;;;;10.47;4.17;;;7.50;99.90;;;;;;5112799;28;20406;-49
2023/03/04 07:43:29;;;;;;;10.73;4.50;;;7.20;99.90;;;;;;5094196;28;20956;-48
2023/03/04 07:46:00;;;;;;;10.40;4.20;;;7.10;99.90;;;;;;5112553;28;20742;-49
2023/03/04 07:48:27;;;;;;;8.50;3.37;;;7.00;99.90;;;;;;5112446;28;21014;-50
2023/03/04 07:51:07;;;;;;;5.53;3.00;;;7.40;99.90;;;;;;5112713;28;20434;-49
2023/03/04 07:53:37;;;;;;;8.60;3.37;;;7.40;99.90;;;;;;5112607;28;20437;-51
2023/03/04 07:56:04;;;;;;;12.03;4.10;;;7.40;99.90;;;;;;5112255;28;20518;-49
2023/03/04 07:58:30;;;;;;;9.60;3.67;;;7.30;99.90;;;;;;5111987;28;20433;-49
2023/03/04 08:00:58;;;;;;;6.20;2.93;;;7.20;99.90;;;;;;5111188;28;20960;-50
2023/03/04 08:03:25;;;;;;;9.50;4.30;;;7.70;99.90;;;;;;5112340;28;20473;-48
2023/03/04 08:05:52;;;;;;;6.37;2.97;;;7.60;99.90;;;;;;5113575;28;20520;-49
2023/03/04 08:08:18;;;;;;;6.50;3.23;;;7.50;99.90;;;;;;5118713;28;20433;-49
2023/03/04 08:10:46;;;;;;;8.97;2.73;;;7.80;99.90;;;;;;5119237;28;20748;-49
2023/03/04 08:13:13;;;;;;;8.33;2.70;;;7.90;99.90;;;;;;5119242;28;20402;-49
2023/03/04 08:15:41;;;;;;;5.30;2.67;;;7.80;99.90;;;;;;5118980;28;20412;-49
2023/03/04 08:18:08;;;;;;;9.00;3.83;;;7.60;99.90;;;;;;5118462;28;20543;-50
2023/03/04 08:20:36;;;;;;;5.60;2.60;;;7.60;99.90;;;;;;5119210;28;20454;-49
2023/03/04 08:23:02;;;;;;;3.90;2.50;;;7.60;99.90;;;;;;5118788;28;20917;-50
2023/03/04 08:25:29;;;;;;;11.13;3.70;;;7.50;99.90;;;;;;5100522;28;20537;-50
2023/03/04 08:27:58;;;;;;;5.20;2.80;;;7.70;99.90;;;;;;5118808;28;20447;-49
2023/03/04 08:30:25;;;;;;;8.87;3.20;;;7.80;99.90;;;;;;5118521;28;20433;-50
2023/03/04 08:32:51;;;;;;;8.90;3.30;;;7.50;99.90;;;;;;5118903;28;20405;-50
2023/03/04 08:35:19;;;;;;;14.23;5.00;;;7.50;99.90;;;;;;5118802;28;20394;-51
2023/03/04 08:37:45;;;;;;;10.97;3.20;;;7.30;99.90;;;;;;5118638;28;20933;-49
2023/03/04 08:40:13;;;;;;;10.00;3.43;;;7.60;99.90;;;;;;5118497;28;20475;-50
2023/03/04 08:42:40;;;;;;;6.40;3.00;;;7.70;99.90;;;;;;5118730;28;20417;-49
2023/03/04 08:45:09;;;;;;;5.30;3.00;;;7.60;99.90;;;;;;5118694;28;20818;-49
2023/03/04 08:47:36;;;;;;;4.90;3.80;;;7.70;99.90;;;;;;5118418;28;20796;-49
2023/03/04 08:50:03;;;;;;;12.97;3.30;;;7.20;99.90;;;;;;5118300;28;20405;-49
2023/03/04 08:52:30;;;;;;;7.33;3.40;;;7.90;99.90;;;;;;5118582;28;20868;-50
2023/03/04 08:54:57;;;;;;;5.87;2.87;;;8.00;99.90;;;;;;5118845;28;20409;-51
2023/03/04 08:57:24;;;;;;;7.00;3.30;;;7.40;99.90;;;;;;5118587;28;20429;-49
2023/03/04 08:59:50;;;;;;;8.63;2.93;;;7.50;99.90;;;;;;5117952;28;20858;-50
2023/03/04 09:02:18;;;;;;;9.00;3.43;;;7.80;99.90;;;;;;5118388;28;20424;-48
2023/03/04 09:04:45;;;;;;;8.60;2.33;;;7.40;99.90;;;;;;5118480;28;20471;-50
2023/03/04 09:07:13;;;;;;;13.93;3.13;;;7.70;99.90;;;;;;5118564;28;20478;-50
2023/03/04 09:09:40;;;;;;;6.27;2.30;;;8.00;99.90;;;;;;5118303;28;20448;-49
2023/03/04 09:12:07;;;;;;;7.00;2.70;;;7.40;99.90;;;;;;5118448;28;20432;-50
2023/03/04 09:14:34;;;;;;;10.00;3.00;;;7.90;99.90;;;;;;5118539;28;20431;-50
2023/03/04 09:17:01;;;;;;;5.20;2.50;;;8.10;99.90;;;;;;5118035;28;20459;-49
2023/03/04 09:19:29;;;;;;;9.40;3.17;;;8.10;99.90;;;;;;5113863;28;20431;-49
2023/03/04 09:21:58;;;;;;;12.33;3.77;;;7.90;99.90;;;;;;5114949;28;20406;-50
2023/03/04 09:24:25;;;;;;;8.93;2.83;;;8.70;99.90;;;;;;5115147;28;20475;-50
2023/03/04 09:26:54;;;;;;;10.23;3.00;;;8.20;99.90;;;;;;5115145;28;20462;-50
2023/03/04 09:29:21;;;;;;;8.50;2.97;;;8.30;99.90;;;;;;5114431;28;20407;-50
2023/03/04 09:31:47;;;;;;;6.70;2.40;;;8.30;99.90;;;;;;5115001;28;20435;-49
2023/03/04 09:34:14;;;;;;;12.33;2.73;;;8.50;99.90;;;;;;5115016;28;20886;-49
2023/03/04 09:36:42;;;;;;;10.43;2.90;;;8.50;99.90;;;;;;5114823;28;20426;-49
2023/03/04 09:39:09;;;;;;;8.10;2.57;;;8.00;99.90;;;;;;5114704;28;20450;-50
2023/03/04 09:41:39;;;;;;;7.77;2.43;;;8.40;99.90;;;;;;5115053;28;20426;-48
2023/03/04 09:44:20;;;;;;;11.90;3.30;;;8.50;99.90;;;;;;5114944;28;20823;-49
2023/03/04 09:46:48;;;;;;;8.97;2.67;;;8.20;99.90;;;;;;5113342;28;20492;-48
2023/03/04 09:49:16;;;;;;;7.00;2.60;;;8.30;99.90;;;;;;5114702;28;20403;-48
2023/03/04 09:51:56;;;;;;;11.10;2.97;;;8.00;99.90;;;;;;5114828;28;20912;-49
2023/03/04 09:54:39;;;;;;;8.27;3.83;;;8.00;99.90;;;;;;5114663;28;20523;-49
2023/03/04 09:57:20;;;;;;;10.63;2.80;;;7.90;99.90;;;;;;5114423;28;20429;-50
2023/03/04 09:59:56;;;;;;;10.23;3.07;;;8.30;99.90;;;;;;5113048;28;20447;-51
2023/03/04 10:02:30;;;;;;;8.67;2.70;;;8.30;99.90;;;;;;5114661;28;20920;-49
2023/03/04 10:05:02;;;;;;;7.23;2.97;;;8.40;99.90;;;;;;5114284;28;20474;-49
2023/03/04 10:07:35;;;;;;;7.53;3.10;;;8.10;99.90;;;;;;5114358;28;20513;-50
2023/03/04 10:10:05;;;;;;;8.97;3.20;;;8.00;99.90;;;;;;5113964;28;20432;-49
2023/03/04 10:12:35;;;;;;;11.50;4.87;;;8.10;99.90;;;;;;5114170;28;20435;-49
2023/03/04 10:15:06;;;;;;;9.23;3.13;;;8.50;99.90;;;;;;5114280;28;20454;-49
2023/03/04 10:17:36;;;;;;;5.93;2.77;;;8.50;99.90;;;;;;5113900;28;20563;-49
2023/03/04 10:20:06;;;;;;;12.30;3.60;;;8.10;99.90;;;;;;5114222;28;20406;-50
2023/03/04 10:22:41;;;;;;;8.43;3.40;;;8.20;99.90;;;;;;5114511;28;20474;-49
2023/03/04 10:25:17;;;;;;;9.70;4.73;;;8.30;99.90;;;;;;5114259;28;20473;-49
2023/03/04 10:27:50;;;;;;;7.40;2.90;;;8.30;99.90;;;;;;5096465;28;20519;-50
2023/03/04 10:30:26;;;;;;;13.53;3.43;;;8.30;99.90;;;;;;5113707;28;20892;-49
2023/03/04 10:32:54;;;;;;;15.23;3.37;;;8.40;99.90;;;;;;5113739;28;20434;-50
2023/03/04 10:35:26;;;;;;;14.00;3.97;;;8.60;99.90;;;;;;5113674;28;20414;-49
2023/03/04 10:37:54;;;;;;;8.17;3.10;;;8.70;99.90;;;;;;5113774;28;20427;-49
2023/03/04 10:40:24;;;;;;;8.70;2.70;;;8.70;99.90;;;;;;5113350;28;20485;-49
2023/03/04 10:42:52;;;;;;;13.20;2.80;;;8.60;99.90;;;;;;5113495;28;20399;-48
2023/03/04 10:45:24;;;;;;;6.73;2.50;;;8.40;99.90;;;;;;5113506;28;20486;-50
2023/03/04 10:47:55;;;;;;;10.60;2.90;;;8.90;99.90;;;;;;5113177;28;20456;-49
2023/03/04 10:50:24;;;;;;;16.60;4.00;;;8.70;99.90;;;;;;5112964;28;20436;-50
2023/03/04 10:52:54;;;;;;;14.30;4.40;;;9.00;99.90;;;;;;5113344;28;20424;-50
2023/03/04 10:55:25;;;;;;;15.97;5.60;;;8.90;99.90;;;;;;5113300;28;20411;-50
2023/03/04 10:57:54;;;;;;;14.40;3.57;;;8.90;99.90;;;;;;5113143;28;20949;-50
2023/03/04 11:00:30;;;;;;;11.27;3.30;;;8.70;99.90;;;;;;5113111;28;20432;-50
2023/03/04 11:03:27;;;;;;;9.63;3.47;;;8.90;99.90;;;;;;5113277;28;20509;-51
2023/03/04 11:06:10;;;;;;;11.93;3.93;;;8.80;99.90;;;;;;5110246;28;20998;-49
2023/03/04 11:08:40;;;;;;;10.67;4.30;;;8.40;99.90;;;;;;5112339;28;20447;-49
2023/03/04 11:11:30;;;;;;;15.03;3.60;;;8.30;99.90;;;;;;5112907;28;20743;-49
2023/03/04 11:14:00;;;;;;;13.13;3.70;;;8.10;99.90;;;;;;5113039;28;20418;-50
2023/03/04 11:16:29;;;;;;;14.97;4.60;;;8.70;99.90;;;;;;5113031;28;20915;-49
2023/03/04 11:19:00;;;;;;;15.80;3.60;;;8.80;99.90;;;;;;5113046;28;20435;-52
2023/03/04 11:21:29;;;;;;;15.93;3.77;;;9.10;99.90;;;;;;5111515;28;20437;-52
2023/03/04 11:23:59;;;;;;;20.23;5.20;;;8.80;99.90;;;;;;5112592;28;20444;-51
2023/03/04 11:26:31;;;;;;;16.07;4.00;;;8.80;99.90;;;;;;5112192;28;20518;-50
2023/03/04 11:29:02;;;;;;;12.63;3.83;;;8.30;99.90;;;;;;5112380;28;20459;-50
2023/03/04 11:31:34;;;;;;;8.97;2.97;;;8.80;99.90;;;;;;5112458;28;20500;-51
2023/03/04 11:34:07;;;;;;;13.60;3.87;;;8.80;99.90;;;;;;5112706;28;20446;-51
2023/03/04 11:36:40;;;;;;;14.87;3.90;;;8.90;99.90;;;;;;5112616;28;20399;-51
2023/03/04 11:39:19;;;;;;;22.40;4.67;;;8.70;99.90;;;;;;5094006;28;20455;-50
2023/03/04 11:41:54;;;;;;;20.20;4.10;;;8.70;99.90;;;;;;5112253;28;20463;-52
2023/03/04 11:44:20;;;;;;;15.33;4.43;;;8.90;99.90;;;;;;5112417;28;20489;-51
2023/03/04 11:47:01;;;;;;;13.93;3.90;;;9.00;99.90;;;;;;5093871;28;20445;-51
2023/03/04 11:49:57;;;;;;;15.07;4.57;;;8.70;99.60;;;;;;5112029;28;20406;-50
2023/03/04 11:52:39;;;;;;;13.07;3.50;;;8.80;99.40;;;;;;5112274;28;20943;-50
2023/03/04 11:55:25;;;;;;;12.70;3.40;;;8.90;99.30;;;;;;5112794;28;20432;-52
2023/03/04 11:58:04;;;;;;;19.23;4.70;;;8.70;99.00;;;;;;5111970;28;20452;-51
2023/03/04 12:00:38;;;;;;;21.50;4.63;;;8.90;99.10;;;;;;5110480;28;20462;-51
2023/03/04 12:03:29;;;;;;;14.03;4.27;;;8.60;99.00;;;;;;5112109;28;20485;-51
2023/03/04 12:06:01;;;;;;;15.63;5.20;;;9.00;99.40;;;;;;5111833;28;20649;-52
2023/03/04 12:08:41;;;;;;;14.70;4.33;;;9.20;99.60;;;;;;5110141;28;20460;-50
2023/03/04 12:11:16;;;;;;;17.23;5.20;;;8.40;99.30;;;;;;5111883;28;20416;-51
2023/03/04 12:13:58;;;;;;;24.70;5.37;;;9.00;99.50;;;;;;5112360;28;20493;-52
2023/03/04 12:16:40;;;;;;;14.43;4.20;;;9.10;99.60;;;;;;5111897;28;20424;-50
2023/03/04 12:19:19;;;;;;;16.17;4.30;;;9.20;99.00;;;;;;5111574;28;20436;-51
2023/03/04 12:22:12;;;;;;;19.37;4.70;;;9.20;99.00;;;;;;5112019;28;20467;-49
2023/03/04 12:25:05;;;;;;;21.20;4.13;;;9.00;98.60;;;;;;5111736;28;20877;-53
2023/03/04 12:27:37;;;;;;;14.00;4.23;;;9.60;98.50;;;;;;5111631;28;20433;-51
2023/03/04 12:30:16;;;;;;;22.33;4.97;;;9.30;98.10;;;;;;5111373;28;20403;-51
2023/03/04 12:32:51;;;;;;;24.57;6.80;;;9.50;98.20;;;;;;5111769;28;20417;-51
2023/03/04 12:35:37;;;;;;;14.37;4.33;;;9.30;98.10;;;;;;5111618;28;20402;-51
2023/03/04 12:38:20;;;;;;;15.50;5.30;;;9.20;97.90;;;;;;5109888;28;20446;-53
2023/03/04 12:40:55;;;;;;;15.43;3.97;;;9.10;97.60;;;;;;5111392;28;20478;-51
2023/03/04 12:43:43;;;;;;;14.17;2.97;;;9.50;97.40;;;;;;5093307;28;20426;-51
2023/03/04 12:46:27;;;;;;;16.60;4.33;;;9.30;97.00;;;;;;5111480;28;20479;-52
2023/03/04 12:49:15;;;;;;;15.90;4.57;;;8.90;96.60;;;;;;5111664;28;20414;-51
2023/03/04 12:51:52;;;;;;;9.53;3.40;;;8.30;96.30;;;;;;5111626;28;20441;-51
2023/03/04 12:54:27;;;;;;;11.80;3.40;;;9.20;96.40;;;;;;5115211;28;20410;-51
2023/03/04 12:56:57;;;;;;;15.27;4.40;;;9.10;96.20;;;;;;5115142;28;20542;-51
2023/03/04 12:59:28;;;;;;;10.37;2.90;;;9.10;96.50;;;;;;5114958;28;20761;-51